Time;durP1;ratioP1;P1;durP2;ratioP2;P2;SDS_P1;SDS_P2;PMS_P1;PMS_P2;Temp;Humidity;BMP_temperature;BMP_pressure;BME280_temperature;BME280_humidity;BME280_pressure;Samples;Min_cycle;Max_cycle;Signal;HPM_P1;HPM_P2
2022/01/21 00:01:17;;;;;;;1.00;1.00;;;-0.20;99.90;;;;;;5070327;28;20564;-82
2022/01/21 00:03:43;;;;;;;0.90;0.90;;;-0.20;99.90;;;;;;5077075;28;20073;-82
2022/01/21 00:06:09;;;;;;;1.02;1.02;;;-0.20;99.90;;;;;;5073168;28;20041;-82
2022/01/21 00:08:37;;;;;;;0.90;0.90;;;-0.20;99.90;;;;;;5075041;28;20049;-82
2022/01/21 00:11:04;;;;;;;0.80;0.80;;;-0.20;99.90;;;;;;5058908;28;20103;-81
2022/01/21 00:13:36;;;;;;;0.90;0.90;;;-0.10;99.90;;;;;;5076301;28;20093;-82
2022/01/21 00:16:13;;;;;;;0.85;0.85;;;-0.10;99.90;;;;;;5079891;28;20094;-82
2022/01/21 00:18:42;;;;;;;0.90;0.90;;;0.00;99.90;;;;;;5076446;28;20091;-82
2022/01/21 00:32:08;;;;;;;1.08;1.05;;;0.40;99.90;;;;;;5073806;28;20044;-81
2022/01/21 00:34:35;;;;;;;0.90;0.90;;;0.40;99.90;;;;;;5074133;28;20045;-81
2022/01/21 00:37:00;;;;;;;1.45;1.35;;;0.50;99.90;;;;;;5075966;28;20091;-82
2022/01/21 00:39:29;;;;;;;1.35;1.27;;;0.50;99.90;;;;;;5071537;28;20045;-82
2022/01/21 00:42:07;;;;;;;0.80;0.80;;;0.50;99.90;;;;;;5074298;28;20075;-82
2022/01/21 00:44:33;;;;;;;0.90;0.90;;;0.40;99.90;;;;;;5080351;28;20044;-82
2022/01/21 00:46:58;;;;;;;0.90;0.90;;;0.40;99.90;;;;;;5078379;28;20098;-81
2022/01/21 00:49:24;;;;;;;1.33;1.23;;;0.30;99.90;;;;;;5077035;28;20159;-82
2022/01/21 00:51:50;;;;;;;0.90;0.90;;;0.30;99.90;;;;;;5063046;28;20040;-82
2022/01/21 00:54:16;;;;;;;0.90;0.90;;;0.30;99.90;;;;;;5059152;28;20041;-82
2022/01/21 00:56:42;;;;;;;0.80;0.80;;;0.30;99.90;;;;;;5072828;28;20067;-82
2022/01/21 00:59:07;;;;;;;0.80;0.80;;;0.30;99.90;;;;;;5078775;28;20044;-82
2022/01/21 01:01:33;;;;;;;0.90;0.90;;;0.20;99.90;;;;;;5078094;28;20037;-81
2022/01/21 01:03:59;;;;;;;0.80;0.80;;;0.20;99.90;;;;;;5078735;28;20040;-81
2022/01/21 01:06:25;;;;;;;0.90;0.90;;;0.20;99.90;;;;;;5074379;28;20069;-82
2022/01/21 01:08:52;;;;;;;0.80;0.80;;;0.20;99.90;;;;;;5072723;28;20064;-82
2022/01/21 01:11:29;;;;;;;1.10;1.05;;;0.20;99.90;;;;;;5059975;28;20208;-82
2022/01/21 01:22:09;;;;;;;0.90;0.90;;;0.20;99.90;;;;;;5077625;28;20072;-82
2022/01/21 01:27:41;;;;;;;0.90;0.90;;;0.20;99.90;;;;;;5073969;28;20045;-82
2022/01/21 01:30:15;;;;;;;0.80;0.80;;;0.20;99.90;;;;;;5074604;28;20048;-82
2022/01/21 01:32:41;;;;;;;;;;;0.20;99.90;;;;;;5082978;28;20036;-82
2022/01/21 01:35:10;;;;;;;0.90;0.90;;;0.40;99.90;;;;;;5077070;28;19956;-82
2022/01/21 01:40:27;;;;;;;0.80;0.80;;;0.60;99.90;;;;;;5074919;28;20128;-82
2022/01/21 01:49:22;;;;;;;0.88;0.88;;;0.40;99.90;;;;;;5076143;28;20144;-82
2022/01/21 01:51:17;;;;;;;0.80;0.80;;;0.40;99.90;;;;;;5072803;28;20045;-82
2022/01/21 01:54:02;;;;;;;5.25;1.88;;;0.30;99.90;;;;;;5060010;28;20041;-82
2022/01/21 01:56:32;;;;;;;1.10;1.10;;;0.40;99.90;;;;;;5077974;28;20096;-82
2022/01/21 01:58:58;;;;;;;0.80;0.80;;;0.40;99.90;;;;;;5076694;28;20049;-82
2022/01/21 02:01:24;;;;;;;0.80;0.80;;;0.50;99.90;;;;;;5075377;28;20043;-82
2022/01/21 02:03:49;;;;;;;0.80;0.80;;;0.60;99.90;;;;;;5075190;28;20037;-83
2022/01/21 02:06:15;;;;;;;0.88;0.88;;;0.80;99.90;;;;;;5056804;28;20037;-83
2022/01/21 02:08:41;;;;;;;0.80;0.80;;;0.80;99.90;;;;;;5075563;28;20044;-82
2022/01/21 02:11:07;;;;;;;0.90;0.90;;;1.00;99.90;;;;;;5056254;28;20052;-81
2022/01/21 02:13:39;;;;;;;0.80;0.80;;;1.00;99.90;;;;;;5081290;28;20045;-81
2022/01/21 02:21:41;;;;;;;0.80;0.80;;;1.30;99.90;;;;;;5072998;28;20068;-82
2022/01/21 02:24:19;;;;;;;0.77;0.77;;;1.30;99.90;;;;;;5070603;28;20049;-82
2022/01/21 02:26:46;;;;;;;0.80;0.80;;;1.30;99.90;;;;;;5075585;28;20072;-82
2022/01/21 02:29:17;;;;;;;1.00;1.00;;;1.20;99.90;;;;;;5076963;28;20532;-81
2022/01/21 02:31:43;;;;;;;0.80;0.80;;;1.30;99.90;;;;;;5077650;28;20107;-82
2022/01/21 02:34:09;;;;;;;0.90;0.90;;;;;;;;;;5073264;28;20477;-82
2022/01/21 02:36:36;;;;;;;0.90;0.90;;;1.00;99.90;;;;;;5078462;28;20060;-81
2022/01/21 02:39:02;;;;;;;0.80;0.80;;;0.90;99.90;;;;;;5067730;28;20120;-82
2022/01/21 02:41:28;;;;;;;0.80;0.80;;;0.80;99.90;;;;;;5060119;28;20029;-82
2022/01/21 02:43:53;;;;;;;0.90;0.90;;;0.70;99.90;;;;;;5068573;28;20048;-81
2022/01/21 02:46:35;;;;;;;0.88;0.88;;;0.70;99.90;;;;;;5072031;28;20041;-82
2022/01/21 02:49:19;;;;;;;0.80;0.80;;;0.60;99.90;;;;;;5060394;28;20449;-83
2022/01/21 02:51:45;;;;;;;0.90;0.90;;;0.60;99.90;;;;;;5075455;28;20048;-82
2022/01/21 02:54:11;;;;;;;0.80;0.80;;;0.60;99.90;;;;;;5077402;28;20531;-81
2022/01/21 02:56:39;;;;;;;0.80;0.80;;;0.60;99.90;;;;;;5078807;28;20112;-81
2022/01/21 02:59:06;;;;;;;0.90;0.90;;;0.50;99.90;;;;;;5067714;28;20041;-82
2022/01/21 03:01:35;;;;;;;0.80;0.80;;;0.50;99.90;;;;;;5077997;28;20049;-82
2022/01/21 03:04:02;;;;;;;0.90;0.90;;;0.50;99.90;;;;;;5077641;28;20123;-82
2022/01/21 03:06:28;;;;;;;1.45;1.35;;;0.60;99.90;;;;;;5075571;28;20109;-82
2022/01/21 03:09:00;;;;;;;0.82;0.82;;;0.50;99.90;;;;;;5079293;28;20079;-83
2022/01/21 03:11:27;;;;;;;0.90;0.90;;;0.50;99.90;;;;;;5074523;28;20033;-82
2022/01/21 03:13:53;;;;;;;0.85;0.85;;;0.50;99.90;;;;;;5073941;28;20052;-82
2022/01/21 03:16:19;;;;;;;0.80;0.80;;;0.40;99.90;;;;;;5080123;28;20046;-82
2022/01/21 03:18:45;;;;;;;0.80;0.80;;;0.40;99.90;;;;;;5073124;28;20096;-82
2022/01/21 03:21:16;;;;;;;0.90;0.90;;;0.30;99.90;;;;;;5076516;28;20040;-82
2022/01/21 03:23:44;;;;;;;0.90;0.90;;;0.30;99.90;;;;;;5069875;28;20045;-81
2022/01/21 03:26:09;;;;;;;0.80;0.80;;;0.20;99.90;;;;;;5070278;28;20044;-82
2022/01/21 03:28:35;;;;;;;0.90;0.90;;;0.20;99.90;;;;;;5070671;28;20048;-82
2022/01/21 03:31:00;;;;;;;0.80;0.80;;;0.20;99.90;;;;;;5076349;28;20099;-82
2022/01/21 03:33:26;;;;;;;0.90;0.90;;;0.20;99.90;;;;;;5075435;28;20048;-82
2022/01/21 03:35:53;;;;;;;0.90;0.90;;;0.20;99.90;;;;;;5080630;28;20424;-82
2022/01/21 03:38:21;;;;;;;0.90;0.90;;;0.20;99.90;;;;;;5081991;28;20056;-82
2022/01/21 03:40:46;;;;;;;0.90;0.90;;;0.20;99.90;;;;;;5069016;28;20041;-82
2022/01/21 03:43:12;;;;;;;0.82;0.82;;;0.20;99.90;;;;;;5075158;28;20176;-81
2022/01/21 03:45:38;;;;;;;0.90;0.90;;;0.10;99.90;;;;;;5077187;28;20033;-82
2022/01/21 03:48:05;;;;;;;0.80;0.80;;;0.10;99.90;;;;;;5077322;28;20045;-82
2022/01/21 03:50:32;;;;;;;0.82;0.82;;;0.00;99.90;;;;;;5074616;28;20053;-82
2022/01/21 03:53:02;;;;;;;0.70;0.70;;;-0.10;99.90;;;;;;5056360;28;20116;-82
2022/01/21 03:55:30;;;;;;;0.90;0.90;;;-0.20;99.90;;;;;;5072747;28;20048;-81
2022/01/21 03:57:56;;;;;;;0.90;0.90;;;-0.20;99.90;;;;;;5078273;28;20088;-81
2022/01/21 04:00:25;;;;;;;0.90;0.90;;;-0.30;99.90;;;;;;5073918;28;20052;-82
2022/01/21 04:02:51;;;;;;;0.80;0.80;;;-0.30;99.90;;;;;;5075992;28;20396;-82
2022/01/21 04:05:16;;;;;;;0.90;0.90;;;-0.30;99.90;;;;;;5079309;28;20067;-81
2022/01/21 04:07:42;;;;;;;0.88;0.88;;;-0.40;99.90;;;;;;5068061;28;20132;-81
2022/01/21 04:10:09;;;;;;;0.98;0.98;;;-0.50;99.90;;;;;;5074337;28;20143;-82
2022/01/21 04:12:34;;;;;;;0.90;0.90;;;-0.50;99.90;;;;;;5070841;28;20055;-81
2022/01/21 04:15:00;;;;;;;1.00;1.00;;;-0.60;99.90;;;;;;5073352;28;20092;-82
2022/01/21 04:17:26;;;;;;;0.90;0.90;;;-0.60;99.90;;;;;;5075701;28;20063;-82
2022/01/21 04:19:52;;;;;;;0.90;0.90;;;-0.70;99.90;;;;;;5069831;28;20072;-82
2022/01/21 04:22:18;;;;;;;0.93;0.93;;;-0.70;99.90;;;;;;5074060;28;20040;-81
2022/01/21 04:24:45;;;;;;;0.90;0.90;;;-0.70;99.90;;;;;;5072133;28;20046;-81
2022/01/21 04:27:11;;;;;;;0.90;0.90;;;-0.70;99.90;;;;;;5073824;28;20040;-82
2022/01/21 04:29:37;;;;;;;1.00;1.00;;;-0.60;99.90;;;;;;5069353;28;20048;-81
2022/01/21 04:32:04;;;;;;;0.80;0.80;;;-0.70;99.90;;;;;;5070833;28;20046;-82
2022/01/21 04:34:30;;;;;;;0.90;0.90;;;-0.70;99.90;;;;;;5085787;28;20044;-82
2022/01/21 04:36:55;;;;;;;0.80;0.80;;;-0.60;99.90;;;;;;5055447;28;20052;-81
2022/01/21 04:39:27;;;;;;;1.25;1.17;;;-0.70;99.90;;;;;;5079361;28;20059;-82
2022/01/21 04:47:22;;;;;;;0.80;0.80;;;-0.70;99.90;;;;;;5070482;28;20049;-82
2022/01/21 04:49:48;;;;;;;1.00;1.00;;;-0.50;99.90;;;;;;5077412;28;20159;-82
2022/01/21 04:52:14;;;;;;;1.00;1.00;;;-0.80;99.90;;;;;;5078216;28;20144;-82
2022/01/21 04:54:40;;;;;;;0.90;0.90;;;-0.80;99.90;;;;;;5073266;28;20516;-82
2022/01/21 04:57:07;;;;;;;1.00;1.00;;;-0.80;99.90;;;;;;5075953;28;20127;-82
2022/01/21 04:59:33;;;;;;;0.88;0.88;;;-0.50;99.90;;;;;;5077675;28;20044;-81
2022/01/21 05:01:59;;;;;;;0.90;0.90;;;-0.70;99.90;;;;;;5077523;28;20040;-82
2022/01/21 05:04:25;;;;;;;1.00;1.00;;;-0.60;99.90;;;;;;5072676;28;20105;-82
2022/01/21 05:06:52;;;;;;;0.90;0.90;;;-0.70;99.90;;;;;;5068384;28;20036;-83
2022/01/21 05:09:19;;;;;;;0.90;0.90;;;-0.60;99.90;;;;;;5072301;28;20067;-83
2022/01/21 05:11:48;;;;;;;0.90;0.90;;;-0.60;99.90;;;;;;5071540;28;20069;-82
2022/01/21 05:14:27;;;;;;;1.75;1.65;;;;;;;;;;5062945;28;20033;-82
2022/01/21 05:17:01;;;;;;;0.90;0.90;;;-0.50;99.90;;;;;;5062171;28;20041;-82
2022/01/21 05:19:27;;;;;;;;;;;-0.50;99.90;;;;;;5067683;28;20047;-82
2022/01/21 05:21:52;;;;;;;0.90;0.90;;;-0.50;99.90;;;;;;5067798;28;19920;-83
2022/01/21 05:24:20;;;;;;;0.90;0.90;;;-0.40;99.90;;;;;;5079692;28;20474;-82
2022/01/21 05:26:53;;;;;;;0.90;0.90;;;-0.40;99.90;;;;;;5054475;28;20131;-82
2022/01/21 05:29:20;;;;;;;0.80;0.80;;;-0.40;99.90;;;;;;5073185;28;20045;-83
2022/01/21 05:31:47;;;;;;;0.80;0.80;;;-0.40;99.90;;;;;;5074665;28;20077;-82
2022/01/21 05:34:12;;;;;;;0.90;0.90;;;-0.30;99.90;;;;;;5058138;28;20037;-83
2022/01/21 05:36:40;;;;;;;0.90;0.90;;;-0.40;99.90;;;;;;5063800;28;20037;-83
2022/01/21 05:39:07;;;;;;;0.90;0.90;;;-0.40;99.90;;;;;;5074660;28;20041;-82
2022/01/21 05:41:33;;;;;;;0.90;0.90;;;-0.50;99.90;;;;;;5077209;28;20052;-83
2022/01/21 05:44:06;;;;;;;0.80;0.80;;;-0.50;99.90;;;;;;5071841;28;20056;-83
2022/01/21 05:49:35;;;;;;;0.85;0.85;;;-0.50;99.90;;;;;;4986843;28;20092;-83
2022/01/21 05:52:15;;;;;;;0.90;0.90;;;-0.50;99.90;;;;;;5060288;28;20055;-83
2022/01/21 05:54:43;;;;;;;0.98;0.98;;;-0.10;99.90;;;;;;5080150;28;20040;-82
2022/01/21 05:57:11;;;;;;;1.00;1.00;;;-0.60;99.90;;;;;;5072138;28;20619;-82
2022/01/21 05:59:37;;;;;;;0.90;0.90;;;-0.70;99.90;;;;;;5079459;28;20040;-83
2022/01/21 06:02:05;;;;;;;0.90;0.90;;;-0.70;99.90;;;;;;5082819;28;20817;-82
2022/01/21 06:04:36;;;;;;;1.00;1.00;;;-0.60;99.90;;;;;;5077005;28;20045;-82
2022/01/21 06:07:04;;;;;;;0.82;0.82;;;-0.60;99.90;;;;;;5072204;28;20380;-83
2022/01/21 06:09:30;;;;;;;0.90;0.90;;;-0.50;99.90;;;;;;5078814;28;20070;-82
2022/01/21 06:11:55;;;;;;;0.90;0.90;;;-0.40;99.90;;;;;;5080692;28;20036;-82
2022/01/21 06:14:21;;;;;;;0.70;0.70;;;-0.30;99.90;;;;;;5073252;28;20040;-82
2022/01/21 06:16:47;;;;;;;0.90;0.90;;;-0.20;99.90;;;;;;5077720;28;20052;-82
2022/01/21 06:19:13;;;;;;;0.90;0.90;;;-0.20;99.90;;;;;;5082970;28;20036;-82
2022/01/21 06:21:39;;;;;;;1.00;1.00;;;-0.10;99.90;;;;;;5075755;28;20609;-83
2022/01/21 06:24:04;;;;;;;1.20;1.20;;;-0.10;99.90;;;;;;5076187;28;20083;-83
2022/01/21 06:26:30;;;;;;;0.80;0.80;;;-0.10;99.90;;;;;;5079110;28;20045;-83
2022/01/21 06:28:55;;;;;;;0.90;0.90;;;-0.10;99.90;;;;;;5076159;28;20037;-83
2022/01/21 06:31:21;;;;;;;0.80;0.80;;;-0.10;99.90;;;;;;5064678;28;20037;-83
2022/01/21 06:33:46;;;;;;;0.90;0.90;;;-0.10;99.90;;;;;;5077224;28;20059;-83
2022/01/21 06:36:12;;;;;;;0.90;0.90;;;-0.10;99.90;;;;;;5074076;28;20037;-83
2022/01/21 06:38:38;;;;;;;0.90;0.90;;;-0.10;99.90;;;;;;5073074;28;20638;-82
2022/01/21 06:41:03;;;;;;;1.00;1.00;;;-0.20;99.90;;;;;;5077198;28;20044;-82
2022/01/21 06:43:29;;;;;;;0.70;0.70;;;-0.10;99.90;;;;;;5071167;28;20086;-82
2022/01/21 06:45:56;;;;;;;0.90;0.90;;;-0.30;99.90;;;;;;5072809;28;20124;-83
2022/01/21 06:48:21;;;;;;;0.90;0.90;;;-0.20;99.90;;;;;;5072397;28;20052;-83
2022/01/21 06:50:47;;;;;;;1.38;1.27;;;-0.20;99.90;;;;;;5056201;28;20041;-82
2022/01/21 06:53:13;;;;;;;0.90;0.90;;;-0.30;99.90;;;;;;5074845;28;20064;-82
2022/01/21 06:55:38;;;;;;;0.90;0.90;;;-0.40;99.90;;;;;;5075036;28;20068;-82
2022/01/21 06:58:05;;;;;;;0.90;0.90;;;-0.40;99.90;;;;;;5076984;28;20434;-83
2022/01/21 07:00:31;;;;;;;1.00;1.00;;;-0.40;99.90;;;;;;5077269;28;20108;-82
2022/01/21 07:02:57;;;;;;;0.95;0.95;;;-0.50;99.90;;;;;;5076142;28;20048;-83
2022/01/21 07:05:25;;;;;;;0.90;0.90;;;-0.50;99.90;;;;;;5070853;28;20033;-82
2022/01/21 07:07:51;;;;;;;0.90;0.90;;;-0.50;99.90;;;;;;5075577;28;20045;-83
2022/01/21 07:10:17;;;;;;;1.63;1.52;;;-0.50;99.90;;;;;;5068947;28;20048;-81
2022/01/21 07:12:44;;;;;;;0.80;0.80;;;-0.50;99.90;;;;;;5079150;28;20036;-82
2022/01/21 07:15:15;;;;;;;0.80;0.80;;;-0.40;99.90;;;;;;5072614;28;20049;-82
2022/01/21 07:17:45;;;;;;;0.80;0.80;;;-0.60;99.90;;;;;;5081243;28;20143;-83
2022/01/21 07:20:11;;;;;;;0.90;0.90;;;-0.60;99.90;;;;;;5067873;28;20051;-81
2022/01/21 07:22:38;;;;;;;1.00;1.00;;;-0.60;99.90;;;;;;5056911;28;20045;-82
2022/01/21 07:25:04;;;;;;;0.90;0.90;;;-0.60;99.90;;;;;;5073597;28;20385;-82
2022/01/21 07:27:30;;;;;;;0.90;0.90;;;-0.60;99.90;;;;;;5071599;28;20094;-82
2022/01/21 07:29:55;;;;;;;0.85;0.85;;;-0.60;99.90;;;;;;5076318;28;20032;-81
2022/01/21 07:32:21;;;;;;;0.85;0.85;;;-0.60;99.90;;;;;;5078729;28;20190;-81
2022/01/21 07:34:47;;;;;;;0.80;0.80;;;-0.60;99.90;;;;;;5077934;28;20045;-81
2022/01/21 07:37:12;;;;;;;0.90;0.90;;;-0.60;99.90;;;;;;5069383;28;20036;-81
2022/01/21 07:39:38;;;;;;;1.00;1.00;;;-0.60;99.90;;;;;;5075650;28;20044;-80
2022/01/21 07:42:04;;;;;;;0.90;0.90;;;-0.60;99.90;;;;;;5074768;28;20045;-81
2022/01/21 07:44:29;;;;;;;0.90;0.90;;;-0.70;99.90;;;;;;5072583;28;20045;-82
2022/01/21 07:46:55;;;;;;;0.93;0.93;;;-0.70;99.90;;;;;;5067211;28;20040;-81
2022/01/21 07:49:21;;;;;;;0.90;0.90;;;-0.70;99.90;;;;;;5066403;28;20049;-80
2022/01/21 07:51:46;;;;;;;1.00;1.00;;;-0.70;99.90;;;;;;5069808;28;20036;-81
2022/01/21 07:54:13;;;;;;;0.90;0.90;;;-0.70;99.90;;;;;;5077722;28;20064;-80
2022/01/21 07:56:38;;;;;;;0.95;0.95;;;-0.70;99.90;;;;;;5072775;28;20044;-81
2022/01/21 07:59:08;;;;;;;0.80;0.80;;;-0.60;99.90;;;;;;5070600;28;20091;-81
2022/01/21 08:01:34;;;;;;;0.95;0.95;;;-0.50;99.90;;;;;;5075592;28;20051;-82
2022/01/21 08:03:59;;;;;;;1.00;1.00;;;-0.30;99.90;;;;;;5073215;28;20660;-81
2022/01/21 08:06:25;;;;;;;0.80;0.80;;;-0.30;99.90;;;;;;5063321;28;20036;-81
2022/01/21 08:08:53;;;;;;;0.90;0.90;;;-0.20;99.90;;;;;;5064024;28;20045;-82
2022/01/21 08:11:18;;;;;;;0.90;0.90;;;-0.10;99.90;;;;;;5072225;28;20095;-80
2022/01/21 08:13:44;;;;;;;0.90;0.90;;;-0.20;99.90;;;;;;5081603;28;20054;-79
2022/01/21 08:16:09;;;;;;;0.90;0.90;;;-0.20;99.90;;;;;;5069675;28;20049;-79
2022/01/21 08:18:36;;;;;;;0.90;0.90;;;-0.10;99.90;;;;;;5070210;28;20059;-81
2022/01/21 08:21:01;;;;;;;0.95;0.95;;;-0.10;99.90;;;;;;5058249;28;20033;-81
2022/01/21 08:23:27;;;;;;;0.90;0.90;;;-0.20;99.90;;;;;;5076733;28;20370;-81
2022/01/21 08:25:53;;;;;;;0.80;0.80;;;-0.20;99.90;;;;;;5057196;28;20076;-80
2022/01/21 08:28:18;;;;;;;0.90;0.90;;;-0.20;99.90;;;;;;5075337;28;20182;-81
2022/01/21 08:30:44;;;;;;;0.80;0.80;;;-0.20;99.90;;;;;;5070993;28;20104;-80
2022/01/21 08:33:10;;;;;;;0.90;0.90;;;-0.10;99.90;;;;;;5069658;28;20044;-80
2022/01/21 08:35:36;;;;;;;0.90;0.90;;;-0.10;99.90;;;;;;5063876;28;20055;-80
2022/01/21 08:38:02;;;;;;;0.90;0.90;;;-0.10;99.90;;;;;;5065791;28;20104;-80
2022/01/21 08:40:28;;;;;;;0.85;0.85;;;-0.10;99.90;;;;;;5072093;28;20064;-81
2022/01/21 08:42:54;;;;;;;0.88;0.88;;;0.00;99.90;;;;;;5080269;28;20048;-81
2022/01/21 08:45:20;;;;;;;0.90;0.90;;;0.10;99.90;;;;;;5074624;28;20072;-81
2022/01/21 08:47:46;;;;;;;0.90;0.90;;;0.30;99.90;;;;;;5080164;28;20052;-81
2022/01/21 08:50:15;;;;;;;0.93;0.93;;;0.50;99.90;;;;;;5071675;28;20053;-79
2022/01/21 08:52:43;;;;;;;0.82;0.82;;;0.60;99.90;;;;;;5077808;28;20104;-80
2022/01/21 08:55:12;;;;;;;0.80;0.80;;;0.70;99.90;;;;;;5078827;28;20064;-80
2022/01/21 08:57:39;;;;;;;0.80;0.80;;;0.80;99.90;;;;;;5079137;28;20669;-82
2022/01/21 09:00:15;;;;;;;0.80;0.80;;;0.80;99.90;;;;;;5074732;28;20040;-80
2022/01/21 09:02:40;;;;;;;0.80;0.80;;;0.90;99.90;;;;;;5079740;28;20417;-81
2022/01/21 09:05:06;;;;;;;0.80;0.80;;;0.90;99.90;;;;;;5075863;28;20039;-81
2022/01/21 09:07:32;;;;;;;0.80;0.80;;;0.90;99.90;;;;;;5079598;28;20075;-81
2022/01/21 09:09:57;;;;;;;0.80;0.80;;;0.90;99.90;;;;;;5077791;28;20052;-80
2022/01/21 09:12:23;;;;;;;0.98;0.98;;;0.90;99.90;;;;;;5074596;28;20052;-81
2022/01/21 09:14:49;;;;;;;0.90;0.90;;;1.00;99.90;;;;;;5076319;28;20049;-81
2022/01/21 09:17:15;;;;;;;0.90;0.90;;;1.10;99.90;;;;;;5074960;28;20059;-81
2022/01/21 09:19:41;;;;;;;0.90;0.90;;;1.10;99.90;;;;;;5068602;28;20478;-81
2022/01/21 09:22:07;;;;;;;1.08;1.08;;;1.10;99.90;;;;;;5078588;28;20045;-81
2022/01/21 09:24:33;;;;;;;0.88;0.88;;;1.30;99.90;;;;;;5083634;28;20044;-82
2022/01/21 09:27:00;;;;;;;0.93;0.93;;;1.40;99.90;;;;;;5071087;28;20052;-82
2022/01/21 09:29:26;;;;;;;0.80;0.80;;;1.50;99.90;;;;;;5079203;28;20045;-81
2022/01/21 09:31:52;;;;;;;0.90;0.90;;;1.60;99.90;;;;;;5082373;28;20584;-80
2022/01/21 09:34:17;;;;;;;0.80;0.80;;;1.60;99.90;;;;;;5075001;28;20423;-80
2022/01/21 09:36:43;;;;;;;1.30;1.25;;;1.70;99.90;;;;;;5072810;28;20071;-81
2022/01/21 09:39:09;;;;;;;1.23;0.98;;;1.80;99.90;;;;;;5084223;28;20495;-81
2022/01/21 09:41:35;;;;;;;0.90;0.90;;;2.00;99.90;;;;;;5074325;28;20141;-81
2022/01/21 09:44:03;;;;;;;0.80;0.80;;;2.00;99.90;;;;;;5074946;28;20059;-80
2022/01/21 09:46:36;;;;;;;0.82;0.82;;;2.00;99.90;;;;;;5080003;28;20051;-81
2022/01/21 09:49:25;;;;;;;0.80;0.80;;;2.10;99.90;;;;;;5081826;28;20036;-81
2022/01/21 09:51:54;;;;;;;0.80;0.80;;;2.10;99.90;;;;;;5074062;28;20113;-80
2022/01/21 09:54:25;;;;;;;0.80;0.80;;;2.20;99.90;;;;;;5069908;28;20122;-80
2022/01/21 09:56:53;;;;;;;1.05;1.05;;;2.20;99.90;;;;;;5073642;28;20039;-80
2022/01/21 09:59:20;;;;;;;0.90;0.90;;;2.40;99.90;;;;;;5074357;28;20287;-80
2022/01/21 10:01:52;;;;;;;0.80;0.80;;;2.40;99.90;;;;;;5076849;28;20098;-80
2022/01/21 10:04:20;;;;;;;0.80;0.80;;;2.50;99.90;;;;;;5080411;28;20036;-80
2022/01/21 10:06:46;;;;;;;0.80;0.80;;;2.60;99.90;;;;;;5078321;28;20090;-82
2022/01/21 10:09:14;;;;;;;0.80;0.80;;;2.60;99.90;;;;;;5076038;28;20037;-80
2022/01/21 10:11:46;;;;;;;0.90;0.90;;;2.60;99.90;;;;;;5070943;28;20063;-79
2022/01/21 10:14:12;;;;;;;0.80;0.80;;;2.60;99.90;;;;;;5070497;28;20037;-79
2022/01/21 10:16:37;;;;;;;0.80;0.80;;;2.60;99.90;;;;;;5074681;28;20045;-79
2022/01/21 10:19:11;;;;;;;0.70;0.70;;;3.00;99.90;;;;;;5068962;28;20049;-79
2022/01/21 10:21:43;;;;;;;0.80;0.80;;;2.50;99.90;;;;;;5074638;28;20080;-79
2022/01/21 10:24:14;;;;;;;0.70;0.70;;;2.60;99.90;;;;;;5078985;28;20032;-79
2022/01/21 10:26:51;;;;;;;0.70;0.70;;;2.80;99.90;;;;;;5080959;28;20036;-80
2022/01/21 10:29:18;;;;;;;0.70;0.70;;;3.00;99.90;;;;;;5080964;28;20060;-79
2022/01/21 10:31:58;;;;;;;0.80;0.80;;;3.20;99.90;;;;;;5076960;28;20381;-80
2022/01/21 10:34:26;;;;;;;0.82;0.82;;;3.30;99.90;;;;;;5074750;28;20037;-80
2022/01/21 10:36:57;;;;;;;0.80;0.80;;;3.40;99.90;;;;;;5076984;28;20087;-79
2022/01/21 10:39:30;;;;;;;0.90;0.90;;;3.50;99.90;;;;;;5076083;28;20146;-80
2022/01/21 10:41:57;;;;;;;4.13;1.88;;;3.60;99.90;;;;;;5072682;28;20049;-82
2022/01/21 10:44:25;;;;;;;0.80;0.80;;;3.70;99.90;;;;;;5075632;28;20044;-81
2022/01/21 10:47:02;;;;;;;0.70;0.70;;;4.20;99.90;;;;;;5073310;28;20095;-79
2022/01/21 10:49:27;;;;;;;1.30;1.20;;;3.90;99.90;;;;;;5074747;28;20175;-80
2022/01/21 10:51:53;;;;;;;0.95;0.95;;;3.90;99.90;;;;;;5076026;28;20040;-80
2022/01/21 10:54:26;;;;;;;0.80;0.80;;;4.00;99.90;;;;;;5077915;28;20051;-79
2022/01/21 10:57:09;;;;;;;0.80;0.80;;;4.00;99.90;;;;;;5071794;28;20099;-79
2022/01/21 10:59:58;;;;;;;0.80;0.80;;;4.20;99.90;;;;;;5076390;28;20087;-79
2022/01/21 11:02:29;;;;;;;1.13;1.10;;;4.30;99.90;;;;;;5069058;28;20051;-80
2022/01/21 11:04:56;;;;;;;0.70;0.70;;;4.40;99.90;;;;;;5077378;28;20036;-81
2022/01/21 11:07:50;;;;;;;0.90;0.90;;;4.50;99.90;;;;;;5075860;28;20086;-82
2022/01/21 11:10:36;;;;;;;2.53;1.98;;;4.60;99.90;;;;;;5073574;28;20064;-82
2022/01/21 11:13:19;;;;;;;0.70;0.70;;;4.70;99.90;;;;;;5076690;28;20060;-81
2022/01/21 11:15:52;;;;;;;0.70;0.70;;;4.80;99.90;;;;;;5070929;28;20067;-81
2022/01/21 11:18:19;;;;;;;0.80;0.80;;;4.80;99.90;;;;;;5072681;28;20048;-82
2022/01/21 11:20:49;;;;;;;0.70;0.70;;;4.80;99.90;;;;;;5076948;28;20063;-82
2022/01/21 11:23:16;;;;;;;0.70;0.70;;;4.80;99.90;;;;;;5075886;28;20111;-82
2022/01/21 11:25:49;;;;;;;0.70;0.70;;;4.90;99.90;;;;;;5076764;28;20037;-82
2022/01/21 11:28:39;;;;;;;0.80;0.80;;;5.10;99.90;;;;;;5075797;28;20215;-81
2022/01/21 11:31:06;;;;;;;0.70;0.70;;;5.20;99.90;;;;;;5080320;28;20037;-82
2022/01/21 11:33:32;;;;;;;0.70;0.70;;;5.30;99.90;;;;;;5051573;28;20108;-82
2022/01/21 11:35:57;;;;;;;0.70;0.70;;;5.70;99.90;;;;;;5072354;28;20049;-82
2022/01/21 11:38:25;;;;;;;0.70;0.70;;;5.50;99.90;;;;;;5076800;28;20048;-82
2022/01/21 11:40:53;;;;;;;1.25;0.90;;;5.50;99.90;;;;;;5078113;28;20033;-82
2022/01/21 11:43:22;;;;;;;15.63;1.25;;;5.50;99.90;;;;;;5072152;28;20059;-82
2022/01/21 11:51:00;;;;;;;0.63;0.63;;;5.70;99.90;;;;;;5075246;28;20047;-82
2022/01/21 11:53:46;;;;;;;1.23;1.13;;;5.70;99.90;;;;;;5068867;28;20473;-82
2022/01/21 11:56:46;;;;;;;0.90;0.90;;;5.60;99.90;;;;;;5062382;28;20045;-83
2022/01/21 11:59:34;;;;;;;1.38;1.30;;;5.50;99.90;;;;;;5067778;28;20044;-84
2022/01/21 12:02:15;;;;;;;0.60;0.60;;;5.50;99.90;;;;;;5072306;28;20128;-82
2022/01/21 12:04:44;;;;;;;0.70;0.70;;;5.50;99.90;;;;;;5061350;28;20041;-82
2022/01/21 12:07:35;;;;;;;0.70;0.70;;;5.50;99.90;;;;;;5057840;28;20055;-79
2022/01/21 12:10:02;;;;;;;0.80;0.80;;;5.50;99.90;;;;;;5079065;28;20040;-78
2022/01/21 12:12:55;;;;;;;0.70;0.70;;;5.60;99.90;;;;;;5077536;28;20547;-78
2022/01/21 12:15:52;;;;;;;0.68;0.68;;;5.40;99.90;;;;;;5076007;28;20056;-81
2022/01/21 12:20:59;;;;;;;1.63;1.05;;;5.40;99.90;;;;;;5079491;28;20500;-79
2022/01/21 12:23:26;;;;;;;1.23;1.13;;;5.40;99.90;;;;;;5072752;28;20071;-79
2022/01/21 12:26:10;;;;;;;0.80;0.80;;;5.40;99.90;;;;;;5079306;28;20100;-79
2022/01/21 12:28:43;;;;;;;0.60;0.60;;;5.40;99.90;;;;;;5076807;28;20072;-79
2022/01/21 12:31:16;;;;;;;0.70;0.70;;;5.50;99.90;;;;;;5075853;28;20108;-80
2022/01/21 12:33:52;;;;;;;0.70;0.70;;;5.50;99.90;;;;;;5080858;28;20078;-79
2022/01/21 12:36:20;;;;;;;0.70;0.70;;;5.60;99.90;;;;;;5077524;28;20197;-78
2022/01/21 12:41:17;;;;;;;0.70;0.70;;;5.70;99.90;;;;;;5064743;28;20170;-80
2022/01/21 12:43:52;;;;;;;0.63;0.63;;;5.60;99.90;;;;;;5081284;28;20389;-79
2022/01/21 12:46:28;;;;;;;1.10;1.10;;;5.70;99.90;;;;;;5070550;28;20067;-79
2022/01/21 12:48:55;;;;;;;0.95;0.95;;;5.70;99.90;;;;;;5074295;28;20040;-80
2022/01/21 12:56:53;;;;;;;0.70;0.70;;;5.70;99.90;;;;;;5079638;28;20048;-80
2022/01/21 12:59:24;;;;;;;0.60;0.60;;;5.80;99.90;;;;;;5079980;28;20143;-80
2022/01/21 13:01:51;;;;;;;0.68;0.68;;;5.80;99.90;;;;;;5079212;28;20037;-80
2022/01/21 13:04:50;;;;;;;0.60;0.60;;;5.80;99.90;;;;;;5087662;28;20040;-81
2022/01/21 13:07:24;;;;;;;0.70;0.70;;;5.80;99.90;;;;;;5077460;28;20048;-79
2022/01/21 13:09:49;;;;;;;;;;;5.90;99.90;;;;;;5073798;28;20064;-80
2022/01/21 13:12:16;;;;;;;0.70;0.70;;;5.80;99.90;;;;;;5077659;28;19934;-79
2022/01/21 13:14:51;;;;;;;1.08;1.02;;;5.90;99.90;;;;;;5074648;28;20072;-79
2022/01/21 13:17:18;;;;;;;0.70;0.70;;;5.90;99.90;;;;;;5083773;28;20094;-83
2022/01/21 13:19:49;;;;;;;0.70;0.70;;;5.90;99.90;;;;;;5081581;28;20060;-79
2022/01/21 13:22:20;;;;;;;11.90;1.67;;;5.90;99.90;;;;;;5081599;28;20036;-81
2022/01/21 13:24:58;;;;;;;0.80;0.80;;;5.90;99.90;;;;;;5072893;28;20244;-82
2022/01/21 13:27:28;;;;;;;0.70;0.70;;;5.90;99.90;;;;;;5082443;28;20108;-82
2022/01/21 13:29:59;;;;;;;0.70;0.70;;;5.90;99.90;;;;;;5083894;28;20048;-82
2022/01/21 13:32:25;;;;;;;5.05;3.40;;;5.90;99.90;;;;;;5082125;28;20049;-82
2022/01/21 13:34:51;;;;;;;1.67;1.15;;;5.90;99.90;;;;;;5079059;28;20443;-82
2022/01/21 13:37:18;;;;;;;0.70;0.70;;;5.90;99.90;;;;;;5079324;28;20040;-81
2022/01/21 13:39:47;;;;;;;0.60;0.60;;;5.90;99.90;;;;;;5082450;28;20048;-82
2022/01/21 13:42:20;;;;;;;0.70;0.70;;;6.00;99.90;;;;;;5083463;28;20121;-81
2022/01/21 13:44:51;;;;;;;0.70;0.70;;;5.90;99.90;;;;;;5090289;28;20108;-82
2022/01/21 13:47:28;;;;;;;0.65;0.65;;;6.00;99.90;;;;;;5087198;28;20044;-82
2022/01/21 13:49:56;;;;;;;1.40;1.25;;;6.00;99.90;;;;;;5078934;28;20112;-81
2022/01/21 13:52:41;;;;;;;0.60;0.60;;;6.10;99.90;;;;;;5056746;28;20036;-81
2022/01/21 13:55:09;;;;;;;0.77;0.77;;;6.10;99.90;;;;;;5084719;28;20055;-81
2022/01/21 13:57:35;;;;;;;0.60;0.60;;;6.20;99.90;;;;;;5073206;28;20064;-80
2022/01/21 14:00:01;;;;;;;0.60;0.60;;;6.10;99.90;;;;;;5070383;28;20044;-81
2022/01/21 14:02:26;;;;;;;0.60;0.60;;;6.10;99.90;;;;;;5081024;28;20115;-82
2022/01/21 14:04:55;;;;;;;0.70;0.70;;;6.20;99.90;;;;;;5054251;28;20073;-81